Time;durP1;ratioP1;P1;durP2;ratioP2;P2;SDS_P1;SDS_P2;PMS_P1;PMS_P2;Temp;Humidity;BMP_temperature;BMP_pressure;BME280_temperature;BME280_humidity;BME280_pressure;Samples;Min_cycle;Max_cycle;Signal;HPM_P1;HPM_P2
2022/07/18 00:02:02;;;;;;;4.60;3.15;;;;;;;19.25;36.44;97445.59;5045843;28;20061;-60
2022/07/18 00:04:30;;;;;;;3.15;2.88;;;;;;;18.99;36.48;97453.91;5046235;28;20063;-61
2022/07/18 00:06:58;;;;;;;3.25;2.90;;;;;;;19.08;36.85;97449.41;5046490;28;20049;-61
2022/07/18 00:09:25;;;;;;;3.78;2.70;;;;;;;19.03;36.96;97461.09;5045850;28;20053;-60
2022/07/18 00:11:57;;;;;;;3.63;2.45;;;;;;;18.97;38.25;97451.50;5044658;28;20076;-61
2022/07/18 00:14:24;;;;;;;4.93;2.55;;;;;;;18.50;38.87;97410.25;5045800;28;20075;-61
2022/07/18 00:16:51;;;;;;;3.15;2.85;;;;;;;18.62;39.97;97462.25;5045863;28;20049;-59
2022/07/18 00:19:18;;;;;;;2.85;2.58;;;;;;;18.19;40.86;97464.53;5045910;28;20056;-61
2022/07/18 00:21:44;;;;;;;3.75;2.63;;;;;;;18.08;41.75;97466.59;5045506;28;20080;-61
2022/07/18 00:24:11;;;;;;;3.58;3.05;;;;;;;17.98;42.92;97464.66;5046018;28;20049;-61
2022/07/18 00:26:38;;;;;;;4.00;2.70;;;;;;;17.78;43.65;97469.16;5045562;28;20428;-63
2022/07/18 00:29:04;;;;;;;2.78;2.58;;;;;;;14.90;44.97;97076.19;5045928;28;20130;-59
2022/07/18 00:31:32;;;;;;;3.00;2.80;;;;;;;17.25;46.10;97483.28;5045809;28;20056;-62
2022/07/18 00:34:00;;;;;;;5.35;2.72;;;;;;;17.14;46.42;97478.91;5045818;28;20346;-60
2022/07/18 00:36:27;;;;;;;2.97;2.65;;;;;;;16.90;47.38;97468.56;5045690;28;20055;-60
2022/07/18 00:38:55;;;;;;;3.75;2.67;;;;;;;16.90;47.54;97496.56;5045541;28;20053;-62
2022/07/18 00:41:23;;;;;;;2.90;2.60;;;;;;;16.87;47.98;97491.72;5045625;28;20498;-59
2022/07/18 00:43:50;;;;;;;3.08;2.88;;;;;;;16.99;47.61;97494.13;5045870;28;20045;-59
2022/07/18 00:46:22;;;;;;;5.63;3.20;;;;;;;16.88;48.11;97493.34;5044172;28;20069;-59
2022/07/18 00:48:49;;;;;;;4.30;3.08;;;;;;;16.82;48.24;97494.94;5045316;28;20554;-60
2022/07/18 00:51:16;;;;;;;5.30;3.30;;;;;;;16.96;47.61;97489.34;5023726;28;20053;-60
2022/07/18 00:53:45;;;;;;;3.78;2.83;;;;;;;17.08;46.79;97486.13;5025805;28;20389;-59
2022/07/18 00:56:13;;;;;;;4.07;2.92;;;;;;;17.15;46.16;97491.72;5025282;28;20056;-59
2022/07/18 00:58:39;;;;;;;2.85;2.65;;;;;;;17.16;46.07;97501.72;5023769;28;20060;-60
2022/07/18 01:03:52;;;;;;;2.63;2.42;;;;;;;17.10;44.24;97494.94;5025084;28;20049;-59
2022/07/18 01:06:18;;;;;;;3.78;2.30;;;;;;;16.40;44.00;97390.22;5023600;28;20054;-60
2022/07/18 01:08:45;;;;;;;2.50;2.30;;;;;;;16.92;45.01;97482.94;5025589;28;20054;-61
2022/07/18 01:11:13;;;;;;;3.88;2.58;;;;;;;16.51;47.18;97449.78;5025049;28;20420;-60
2022/07/18 01:13:40;;;;;;;4.28;2.28;;;;;;;16.72;46.41;97490.94;5025274;28;20111;-60
2022/07/18 01:16:07;;;;;;;6.60;2.30;;;;;;;15.90;44.68;97371.03;5024584;28;20111;-60
2022/07/18 01:18:34;;;;;;;2.33;2.13;;;;;;;16.56;45.06;97491.34;5024904;28;20440;-60
2022/07/18 01:21:01;;;;;;;2.65;2.30;;;;;;;16.58;44.24;97488.94;5024867;28;20111;-60
2022/07/18 01:23:27;;;;;;;2.42;2.22;;;;;;;16.26;43.66;97434.16;5024949;28;20065;-61
2022/07/18 01:25:54;;;;;;;2.03;1.88;;;;;;;16.36;43.99;97520.84;5023369;28;20496;-60
2022/07/18 01:28:21;;;;;;;2.85;2.40;;;;;;;16.36;44.72;97495.66;5024470;28;20050;-59
2022/07/18 01:30:48;;;;;;;2.33;2.13;;;;;;;16.22;45.06;97495.66;5023300;28;20058;-59
2022/07/18 01:33:15;;;;;;;5.20;2.50;;;;;;;16.13;45.48;97491.63;5023421;28;20086;-60
2022/07/18 01:35:42;;;;;;;2.33;2.13;;;;;;;15.70;45.19;97429.25;5024596;28;20056;-61
2022/07/18 01:38:08;;;;;;;4.03;2.10;;;;;;;16.21;45.25;97493.25;5024740;28;20069;-59
2022/07/18 01:40:35;;;;;;;2.78;2.33;;;;;;;16.28;45.25;97505.25;5024502;28;20060;-60
2022/07/18 01:43:02;;;;;;;2.58;2.25;;;;;;;16.23;45.16;97497.22;5024125;28;20053;-61
2022/07/18 01:45:29;;;;;;;2.33;2.05;;;;;;;16.14;45.48;97499.63;5024274;28;20060;-60
2022/07/18 01:47:56;;;;;;;2.30;2.20;;;;;;;15.60;45.67;97430.00;5024432;28;20060;-60
2022/07/18 01:50:22;;;;;;;2.70;2.50;;;;;;;15.93;46.02;97488.38;5037080;28;20052;-59
2022/07/18 01:52:49;;;;;;;3.13;2.20;;;;;;;15.92;45.91;97503.53;5044188;28;20149;-60
2022/07/18 01:55:16;;;;;;;2.13;2.03;;;;;;;16.06;45.63;97509.19;5044274;28;20055;-61
2022/07/18 01:57:42;;;;;;;2.10;2.00;;;;;;;15.59;46.13;97453.53;5044496;28;20049;-59
2022/07/18 02:00:11;;;;;;;2.30;2.10;;;;;;;15.76;46.19;97489.13;5044191;28;20057;-59
2022/07/18 02:02:39;;;;;;;2.40;2.00;;;;;;;15.74;45.69;97479.53;5044457;28;20135;-60
2022/07/18 02:05:06;;;;;;;2.13;2.03;;;;;;;15.91;45.89;97507.53;5044118;28;20056;-61
2022/07/18 02:07:36;;;;;;;2.72;2.50;;;;;;;15.86;45.37;97499.53;5044083;28;20063;-61
2022/07/18 02:10:11;;;;;;;4.95;1.95;;;;;;;15.87;45.58;97517.88;5043074;28;20405;-59
2022/07/18 02:12:39;;;;;;;2.05;1.85;;;;;;;15.81;45.95;97519.47;5044814;28;20110;-59
2022/07/18 02:15:07;;;;;;;2.40;2.20;;;;;;;15.67;47.70;97525.00;5044377;28;20053;-60
2022/07/18 02:17:34;;;;;;;2.20;2.00;;;;;;;15.27;46.31;97469.31;5044308;28;20049;-60
2022/07/18 02:20:01;;;;;;;2.05;1.83;;;;;;;15.56;46.61;97534.50;5044267;28;20053;-59
2022/07/18 02:22:28;;;;;;;4.15;2.20;;;;;;;15.54;47.02;97537.69;5043824;28;20057;-59
2022/07/18 02:24:55;;;;;;;3.22;2.10;;;;;;;15.56;46.60;97534.50;5044194;28;20068;-62
2022/07/18 02:27:21;;;;;;;3.75;2.53;;;;;;;15.48;47.10;97539.25;5042250;28;20075;-60
2022/07/18 02:29:48;;;;;;;2.55;1.98;;;;;;;15.03;47.13;97461.59;5043805;28;20066;-59
2022/07/18 02:32:15;;;;;;;3.35;1.80;;;;;;;15.33;47.41;97526.38;5043787;28;20060;-59
2022/07/18 02:34:42;;;;;;;2.30;2.10;;;;;;;15.07;47.57;97493.09;5043914;28;20057;-61
2022/07/18 02:37:08;;;;;;;2.17;2.08;;;;;;;15.34;47.66;97546.69;5042712;28;20053;-60
2022/07/18 02:39:35;;;;;;;2.67;1.98;;;;;;;15.27;47.81;97539.06;5043433;28;20049;-60
2022/07/18 02:42:02;;;;;;;5.35;2.10;;;;;;;15.20;47.79;97539.06;5043874;28;20061;-59
2022/07/18 02:44:29;;;;;;;2.75;2.30;;;;;;;14.69;47.86;97474.91;5043788;28;20052;-60
2022/07/18 02:46:56;;;;;;;2.70;2.20;;;;;;;14.78;48.36;97482.91;5043459;28;20060;-59
2022/07/18 02:49:28;;;;;;;2.17;1.98;;;;;;;14.70;48.13;97453.41;5038136;28;20046;-60
2022/07/18 02:52:01;;;;;;;2.92;2.38;;;;;;;15.27;48.20;97543.88;5023591;28;20539;-60
2022/07/18 02:54:29;;;;;;;2.60;2.20;;;;;;;14.61;48.74;97466.88;5023820;28;20233;-59
2022/07/18 02:56:56;;;;;;;4.10;1.85;;;;;;;14.80;49.38;97539.94;5023455;28;20041;-59
2022/07/18 02:59:24;;;;;;;2.75;1.88;;;;;;;14.19;49.30;97455.31;5023681;28;20527;-60
2022/07/18 03:01:51;;;;;;;2.10;2.00;;;;;;;14.79;48.93;97554.28;5022422;28;20835;-60
2022/07/18 03:04:19;;;;;;;2.08;1.90;;;;;;;14.87;49.46;97569.88;5022314;28;20475;-59
2022/07/18 03:06:47;;;;;;;2.30;2.10;;;;;;;14.92;49.72;97589.06;5023214;28;20081;-60
2022/07/18 03:09:14;;;;;;;6.10;2.05;;;;;;;14.49;52.55;97587.03;5022475;28;20049;-61
2022/07/18 03:11:41;;;;;;;2.88;2.13;;;;;;;14.19;54.11;97555.63;5025645;28;20056;-59
2022/07/18 03:14:08;;;;;;;3.85;2.38;;;;;;;13.67;55.05;97496.13;5027529;28;20072;-61
2022/07/18 03:16:35;;;;;;;4.20;2.88;;;;;;;13.90;55.36;97548.09;5026766;28;20053;-60
2022/07/18 03:19:02;;;;;;;4.93;2.17;;;;;;;14.30;53.12;97590.00;5027257;28;20079;-61
2022/07/18 03:21:29;;;;;;;2.38;1.90;;;;;;;14.35;52.42;97592.47;5027085;28;20440;-61
2022/07/18 03:23:56;;;;;;;3.10;1.98;;;;;;;14.29;52.22;97596.78;5026879;28;20554;-62
2022/07/18 03:26:23;;;;;;;2.10;1.90;;;;;;;13.88;52.44;97551.28;5026529;28;20516;-59
2022/07/18 03:28:50;;;;;;;2.40;1.80;;;;;;;14.11;53.06;97592.94;5027130;28;20528;-59
2022/07/18 03:31:17;;;;;;;4.47;2.22;;;;;;;14.23;53.00;97599.06;5026982;28;20049;-61
2022/07/18 03:33:43;;;;;;;2.67;2.47;;;;;;;14.35;52.61;97598.81;5026991;28;20053;-60
2022/07/18 03:36:10;;;;;;;2.65;2.10;;;;;;;14.38;52.12;97597.28;5026694;28;20053;-61
2022/07/18 03:38:42;;;;;;;2.78;1.90;;;;;;;14.41;52.48;97593.72;5026814;28;20065;-59
2022/07/18 03:41:11;;;;;;;2.42;2.22;;;;;;;14.53;52.38;97604.59;5025510;28;20053;-60
2022/07/18 03:43:39;;;;;;;3.05;2.33;;;;;;;14.53;51.97;97573.94;5026871;28;20072;-62
2022/07/18 03:46:07;;;;;;;2.97;2.30;;;;;;;14.54;51.52;97556.03;5025324;28;20451;-62
2022/07/18 03:48:35;;;;;;;4.38;2.20;;;;;;;14.94;51.03;97597.81;5025440;28;20065;-62
2022/07/18 03:51:03;;;;;;;4.05;2.20;;;;;;;15.03;50.79;97603.91;5043653;28;20061;-63
2022/07/18 03:53:31;;;;;;;2.78;2.15;;;;;;;15.12;50.76;97604.38;5045262;28;20076;-60
2022/07/18 03:55:58;;;;;;;2.97;2.15;;;;;;;15.17;50.98;97612.38;5046387;28;20086;-61
2022/07/18 03:58:25;;;;;;;5.32;2.65;;;;;;;14.64;51.22;97544.16;5046082;28;20057;-61
2022/07/18 04:00:52;;;;;;;2.55;2.30;;;;;;;15.24;50.68;97623.59;5046366;28;20061;-59
2022/07/18 04:03:19;;;;;;;5.80;2.70;;;;;;;15.00;50.59;97574.00;5045993;28;20052;-60
2022/07/18 04:05:47;;;;;;;2.90;2.50;;;;;;;15.32;51.31;97630.06;5044689;28;20071;-60
2022/07/18 04:08:14;;;;;;;2.00;1.90;;;;;;;15.33;50.96;97638.03;5046233;28;20455;-61
2022/07/18 04:10:41;;;;;;;2.60;2.15;;;;;;;15.46;50.01;97639.34;5046008;28;20049;-61
2022/07/18 04:13:08;;;;;;;2.42;2.22;;;;;;;15.24;49.37;97584.53;5045859;28;20045;-61
2022/07/18 04:15:36;;;;;;;5.70;2.47;;;;;;;15.62;49.57;97641.84;5044527;28;20060;-61
2022/07/18 04:18:07;;;;;;;3.50;2.42;;;;;;;15.46;49.65;97597.47;5046161;28;20469;-61
2022/07/18 04:20:35;;;;;;;3.00;2.20;;;;;;;15.53;48.80;97569.59;5044264;28;20049;-62
2022/07/18 04:23:05;;;;;;;3.78;2.67;;;;;;;16.08;48.20;97640.94;5045644;28;20052;-60
2022/07/18 04:25:36;;;;;;;2.40;2.25;;;;;;;16.24;48.10;97638.63;5045548;28;20128;-61
2022/07/18 04:28:03;;;;;;;4.32;2.80;;;;;;;16.38;48.07;97641.50;5045575;28;20553;-62
2022/07/18 04:30:31;;;;;;;3.80;2.05;;;;;;;16.11;48.53;97589.84;5045322;28;20492;-61
2022/07/18 04:32:59;;;;;;;3.20;2.90;;;;;;;16.35;48.02;97608.72;5045623;28;20573;-61
2022/07/18 04:35:26;;;;;;;3.13;2.92;;;;;;;16.50;48.56;97607.59;5045531;28;20053;-61
2022/07/18 04:37:53;;;;;;;2.63;2.42;;;;;;;16.73;48.93;97617.63;5043927;28;20428;-60
2022/07/18 04:40:19;;;;;;;6.68;2.70;;;;;;;17.06;50.08;97634.06;5045452;28;20533;-60
2022/07/18 04:42:46;;;;;;;3.28;2.85;;;;;;;17.09;49.64;97644.47;5045613;28;20492;-61
2022/07/18 04:45:15;;;;;;;7.60;4.45;;;;;;;16.91;51.29;97635.28;5045823;28;20055;-62
2022/07/18 04:47:42;;;;;;;6.40;2.90;;;;;;;17.24;51.54;97646.09;5043802;28;20049;-60
2022/07/18 04:50:09;;;;;;;4.68;2.63;;;;;;;17.28;49.59;97635.69;5035540;28;20061;-60
2022/07/18 04:52:40;;;;;;;5.00;3.60;;;;;;;17.52;49.02;97640.53;5024783;28;20073;-60
2022/07/18 04:55:09;;;;;;;7.47;3.13;;;;;;;17.78;48.80;97640.13;5011967;28;20058;-59
2022/07/18 04:57:37;;;;;;;5.15;3.55;;;;;;;17.87;49.54;97640.50;5004397;28;20722;-60
2022/07/18 05:00:07;;;;;;;7.00;4.30;;;;;;;18.06;49.15;97648.47;5004278;28;20084;-59
2022/07/18 05:02:34;;;;;;;6.32;3.08;;;;;;;18.20;47.91;97647.59;5003662;28;20054;-62
2022/07/18 05:05:01;;;;;;;7.68;2.83;;;;;;;18.41;47.97;97648.38;5005580;28;20108;-60
2022/07/18 05:07:27;;;;;;;5.70;3.20;;;;;;;18.54;47.16;97646.69;5005403;28;20045;-63
2022/07/18 05:09:54;;;;;;;5.57;3.28;;;;;;;18.46;47.51;97650.78;5005136;28;20429;-60
2022/07/18 05:12:23;;;;;;;4.28;2.90;;;;;;;18.75;47.08;97643.78;5005264;28;20069;-59
2022/07/18 05:14:50;;;;;;;7.15;3.50;;;;;;;18.84;46.31;97641.31;5004992;28;20054;-62
2022/07/18 05:17:26;;;;;;;8.35;3.70;;;;;;;18.97;45.93;97636.84;5005059;28;20053;-60
2022/07/18 05:19:52;;;;;;;4.65;4.15;;;;;;;19.27;45.19;97639.84;5005124;28;20395;-60
2022/07/18 05:22:19;;;;;;;5.35;3.67;;;;;;;19.17;44.10;97609.81;5005133;28;20065;-63
2022/07/18 05:24:45;;;;;;;4.57;3.63;;;;;;;19.57;43.96;97646.88;5004904;28;20801;-60
2022/07/18 05:27:12;;;;;;;7.88;4.40;;;;;;;19.58;43.54;97605.06;5004729;28;20579;-60
2022/07/18 05:29:39;;;;;;;5.85;4.03;;;;;;;20.00;42.01;97650.84;5004971;28;20496;-60
2022/07/18 05:32:07;;;;;;;6.28;3.72;;;;;;;20.18;41.56;97637.44;5004881;28;20065;-60
2022/07/18 05:34:34;;;;;;;4.60;3.75;;;;;;;20.31;41.95;97644.91;5002856;28;20141;-61
2022/07/18 05:37:01;;;;;;;7.70;3.67;;;;;;;20.35;41.92;97625.19;5003416;28;20058;-60
2022/07/18 05:39:27;;;;;;;6.40;3.95;;;;;;;20.58;41.88;97630.94;5004961;28;20347;-63
2022/07/18 05:41:54;;;;;;;10.75;4.90;;;;;;;20.84;41.73;97644.25;5004078;28;20050;-61
2022/07/18 05:44:21;;;;;;;9.55;6.32;;;;;;;20.93;41.30;97633.25;5010281;28;20058;-64
2022/07/18 05:46:48;;;;;;;4.78;4.13;;;;;;;21.24;40.47;97643.31;5020472;28;20107;-64
2022/07/18 05:49:16;;;;;;;4.47;3.55;;;;;;;21.48;39.45;97639.28;5023327;28;20053;-60
2022/07/18 05:51:42;;;;;;;9.10;3.90;;;;;;;21.60;39.12;97620.97;5018670;28;20061;-65
2022/07/18 05:54:18;;;;;;;4.05;3.67;;;;;;;21.67;38.53;97582.16;5021962;28;20060;-67
2022/07/18 05:56:49;;;;;;;7.28;3.50;;;;;;;22.20;37.86;97615.03;5024470;28;20155;-63
2022/07/18 05:59:18;;;;;;;9.52;3.67;;;;;;;22.49;36.68;97625.31;5022358;28;20057;-62
2022/07/18 06:01:45;;;;;;;3.55;3.25;;;;;;;22.75;35.42;97623.59;5023364;28;20052;-65
2022/07/18 06:04:12;;;;;;;5.00;3.50;;;;;;;22.72;34.78;97606.72;5024284;28;20107;-71
2022/07/18 06:06:39;;;;;;;5.70;3.65;;;;;;;22.54;34.47;97561.16;5022913;28;20060;-65
2022/07/18 06:09:06;;;;;;;4.30;3.90;;;;;;;22.84;34.60;97580.66;5023061;28;20056;-61
2022/07/18 06:11:33;;;;;;;3.85;3.65;;;;;;;22.38;34.42;97475.09;5022809;28;20052;-63
2022/07/18 06:14:02;;;;;;;3.45;3.25;;;;;;;23.56;33.67;97633.06;5026140;28;20054;-63
2022/07/18 06:16:30;;;;;;;3.75;3.45;;;;;;;23.65;32.95;97599.28;5023234;28;20152;-66
2022/07/18 06:18:58;;;;;;;3.80;3.47;;;;;;;23.98;32.75;97632.00;5021265;28;20049;-64
2022/07/18 06:21:25;;;;;;;3.97;3.60;;;;;;;23.97;32.55;97602.09;5021801;28;20057;-68
2022/07/18 06:23:52;;;;;;;8.10;4.38;;;;;;;23.78;32.61;97554.88;5019948;28;20077;-64
2022/07/18 06:26:19;;;;;;;4.40;4.00;;;;;;;23.92;32.58;97559.38;5020303;28;20398;-68
2022/07/18 06:28:46;;;;;;;3.83;3.58;;;;;;;24.25;32.16;97577.88;5023501;28;20049;-59
2022/07/18 06:31:16;;;;;;;8.57;4.30;;;;;;;23.48;31.64;97575.06;5021064;28;20061;-63
2022/07/18 06:33:43;;;;;;;8.88;6.18;;;;;;;23.97;32.14;97619.09;5021299;28;20150;-60
2022/07/18 06:36:11;;;;;;;6.68;4.05;;;;;;;24.15;31.42;97601.63;5021256;28;20183;-64
2022/07/18 06:38:39;;;;;;;50.50;35.42;;;;;;;24.34;31.66;97559.00;5021146;28;20041;-67
2022/07/18 06:41:07;;;;;;;7.93;6.70;;;;;;;25.09;30.80;97613.00;5021171;28;20056;-63
2022/07/18 06:43:37;;;;;;;4.95;4.50;;;;;;;25.32;30.37;97612.66;5023505;28;20424;-64
2022/07/18 06:46:04;;;;;;;4.75;4.35;;;;;;;25.56;29.92;97615.19;5025946;28;20064;-62
2022/07/18 06:48:33;;;;;;;7.10;4.38;;;;;;;25.70;29.02;97604.16;5023359;28;20140;-63
2022/07/18 06:51:05;;;;;;;7.75;6.03;;;;;;;25.79;29.28;97611.97;5023697;28;20057;-61
2022/07/18 06:53:32;;;;;;;5.07;4.60;;;;;;;25.63;28.39;97589.41;5017353;28;20539;-60
2022/07/18 06:56:02;;;;;;;4.88;4.57;;;;;;;25.96;29.21;97610.56;5016385;28;20063;-61
2022/07/18 06:58:33;;;;;;;10.20;6.53;;;;;;;26.17;28.64;97609.84;5014031;28;20121;-64
2022/07/18 07:01:00;;;;;;;8.30;4.30;;;;;;;26.31;28.70;97609.34;5017655;28;20121;-59
2022/07/18 07:03:27;;;;;;;4.47;4.20;;;;;;;26.39;28.20;97576.56;5016762;28;20556;-60
2022/07/18 07:05:54;;;;;;;5.50;4.75;;;;;;;26.74;28.67;97598.00;5016405;28;20116;-66
2022/07/18 07:08:21;;;;;;;5.45;5.03;;;;;;;26.93;28.25;97605.41;5017207;28;20092;-65
2022/07/18 07:10:48;;;;;;;9.80;6.72;;;;;;;26.68;27.66;97548.72;5011357;28;20045;-62
2022/07/18 07:13:15;;;;;;;5.47;4.97;;;;;;;26.95;27.58;97597.22;5014581;28;20049;-61
2022/07/18 07:15:44;;;;;;;5.35;4.95;;;;;;;26.61;28.28;97557.47;5016743;28;20229;-66
2022/07/18 07:18:10;;;;;;;5.40;4.75;;;;;;;26.43;30.13;97582.94;5019104;28;20065;-61
2022/07/18 07:20:37;;;;;;;8.98;5.20;;;;;;;26.62;29.47;97570.41;5013383;28;20058;-60
2022/07/18 07:23:07;;;;;;;5.15;4.63;;;;;;;26.26;28.81;97545.38;5014075;28;20053;-68
2022/07/18 07:25:35;;;;;;;6.28;5.10;;;;;;;25.77;29.91;97555.66;5015159;28;20505;-61
2022/07/18 07:28:03;;;;;;;5.00;4.55;;;;;;;26.20;29.81;97546.44;5021303;28;20045;-62
2022/07/18 07:30:31;;;;;;;5.57;5.13;;;;;;;26.47;30.65;97538.09;5011237;28;20366;-68
2022/07/18 07:32:58;;;;;;;6.07;5.47;;;;;;;27.08;31.31;97577.19;5014168;28;20065;-69
2022/07/18 07:35:25;;;;;;;5.60;5.18;;;;;;;27.44;31.01;97583.84;5018749;28;20072;-61
2022/07/18 07:37:57;;;;;;;4.95;4.65;;;;;;;27.41;30.45;97596.16;5016355;28;20052;-65
2022/07/18 07:40:27;;;;;;;5.57;5.18;;;;;;;27.52;31.11;97590.06;5018046;28;20490;-69
2022/07/18 07:43:09;;;;;;;5.88;5.38;;;;;;;27.57;30.58;97584.53;5016239;28;20057;-72
2022/07/18 07:45:36;;;;;;;5.20;4.80;;;;;;;27.71;30.17;97586.78;5014483;28;20057;-65
2022/07/18 07:48:03;;;;;;;6.20;5.65;;;;;;;27.81;30.72;97584.72;5016517;28;20079;-61
2022/07/18 07:50:30;;;;;;;5.68;5.28;;;;;;;27.51;30.52;97548.59;5019836;28;20064;-67
2022/07/18 07:52:58;;;;;;;5.15;4.68;;;;;;;27.62;30.87;97583.91;5014555;28;20053;-62
2022/07/18 07:55:25;;;;;;;5.63;5.32;;;;;;;27.37;31.47;97561.38;5012874;28;20042;-63
2022/07/18 07:57:52;;;;;;;5.60;5.30;;;;;;;27.06;31.13;97588.25;5016598;28;20053;-65
2022/07/18 08:00:20;;;;;;;5.75;5.13;;;;;;;27.57;31.74;97587.38;5016825;28;20163;-67
2022/07/18 08:02:59;;;;;;;5.55;5.15;;;;;;;27.21;30.68;97499.00;5028154;28;20759;-63
2022/07/18 08:05:31;;;;;;;6.38;5.57;;;;;;;25.86;31.89;97296.63;5017808;28;20126;-64
2022/07/18 08:07:59;;;;;;;5.57;5.13;;;;;;;27.95;30.54;97579.25;5021612;28;20060;-61
2022/07/18 08:10:26;;;;;;;8.27;6.18;;;;;;;28.00;31.24;97587.19;5014342;28;20057;-65
2022/07/18 08:12:53;;;;;;;5.60;5.30;;;;;;;28.17;31.42;97578.34;5012267;28;20126;-66
2022/07/18 08:15:20;;;;;;;7.53;6.93;;;;;;;28.26;30.67;97587.69;5016983;28;20050;-62
2022/07/18 08:17:47;;;;;;;6.18;5.70;;;;;;;28.07;30.49;97569.75;5014650;28;20062;-66
2022/07/18 08:20:16;;;;;;;6.50;5.93;;;;;;;27.44;31.05;97447.22;5010751;28;20045;-67
2022/07/18 08:23:01;;;;;;;5.15;4.88;;;;;;;28.53;30.50;97578.34;5022028;28;20156;-66
2022/07/18 08:25:31;;;;;;;5.45;5.15;;;;;;;28.74;29.65;97583.84;5018609;28;20045;-64
2022/07/18 08:27:59;;;;;;;12.50;5.88;;;;;;;28.70;29.73;97568.19;5016429;28;20052;-64
2022/07/18 08:30:27;;;;;;;5.85;5.50;;;;;;;28.93;29.79;97573.19;5019820;28;20060;-65
2022/07/18 08:32:54;;;;;;;5.93;5.22;;;;;;;28.11;30.22;97578.97;5023240;28;20053;-62
2022/07/18 08:35:21;;;;;;;6.22;5.85;;;;;;;27.88;30.86;97573.84;5015640;28;20061;-62
2022/07/18 08:37:48;;;;;;;5.80;5.40;;;;;;;28.27;30.02;97575.00;5016080;28;20061;-65
2022/07/18 08:40:15;;;;;;;7.10;5.65;;;;;;;27.72;31.18;97530.63;5016440;28;20045;-66
2022/07/18 08:42:42;;;;;;;9.52;5.78;;;;;;;27.69;31.13;97566.53;5017568;28;20052;-63
2022/07/18 08:45:28;;;;;;;6.00;5.40;;;;;;;28.04;31.18;97570.72;5011792;28;20935;-65
2022/07/18 08:47:55;;;;;;;6.05;5.45;;;;;;;28.30;31.63;97576.09;5020605;28;20421;-68
2022/07/18 08:50:23;;;;;;;6.35;5.85;;;;;;;28.64;31.18;97572.94;5013433;28;20048;-63
2022/07/18 08:52:50;;;;;;;6.30;5.97;;;;;;;28.47;30.14;97501.19;5018755;28;20463;-66
2022/07/18 08:55:20;;;;;;;6.72;6.22;;;;;;;29.03;30.55;97577.59;5015117;28;20124;-62
2022/07/18 08:57:52;;;;;;;6.25;5.85;;;;;;;29.19;29.15;97574.41;5022135;28;20166;-66
2022/07/18 09:00:21;;;;;;;6.47;6.07;;;;;;;29.00;29.99;97564.31;5008250;28;20057;-62
2022/07/18 09:03:01;;;;;;;6.25;5.75;;;;;;;27.71;30.71;97492.03;5008360;28;20050;-63
2022/07/18 09:05:29;;;;;;;6.00;5.50;;;;;;;28.49;30.23;97572.00;5014717;28;20057;-68
2022/07/18 09:08:16;;;;;;;6.40;5.80;;;;;;;28.74;30.37;97565.97;5009091;28;20050;-63
2022/07/18 09:10:54;;;;;;;6.95;5.97;;;;;;;29.12;29.75;97569.03;5012741;28;20473;-64
2022/07/18 09:13:32;;;;;;;6.00;5.60;;;;;;;28.68;30.17;97568.66;5014291;28;20491;-61
2022/07/18 09:16:07;;;;;;;6.28;5.88;;;;;;;27.97;31.14;97576.75;5010980;28;20054;-66
2022/07/18 09:18:36;;;;;;;6.25;5.85;;;;;;;28.71;30.18;97572.59;5010184;28;20061;-64
2022/07/18 09:21:06;;;;;;;6.05;5.65;;;;;;;28.90;29.93;97574.16;5034244;28;20060;-63
2022/07/18 09:23:35;;;;;;;6.63;5.90;;;;;;;28.54;29.78;97455.28;5011192;28;20843;-63
2022/07/18 09:26:03;;;;;;;7.03;6.05;;;;;;;29.57;28.49;97566.00;5012128;28;20049;-59
2022/07/18 09:28:51;;;;;;;6.55;5.55;;;;;;;29.81;28.18;97564.00;5014673;28;20049;-65
2022/07/18 09:31:38;;;;;;;6.43;5.82;;;;;;;30.01;28.25;97564.16;5017223;28;20057;-63
2022/07/18 09:34:07;;;;;;;7.57;6.15;;;;;;;30.26;28.18;97566.53;5018839;28;20068;-62
2022/07/18 09:36:36;;;;;;;9.75;6.43;;;;;;;29.12;29.27;97569.03;5012353;28;20133;-63
2022/07/18 09:39:20;;;;;;;7.20;6.53;;;;;;;29.05;29.35;97575.06;5012819;28;20049;-63
2022/07/18 09:41:47;;;;;;;6.80;6.40;;;;;;;28.40;29.44;97566.28;5013064;28;20115;-64
2022/07/18 09:44:15;;;;;;;6.05;5.50;;;;;;;28.00;30.45;97586.38;5015815;28;20054;-65
2022/07/18 09:47:00;;;;;;;9.30;6.22;;;;;;;28.49;30.70;97564.25;5010532;28;20054;-62
2022/07/18 09:49:31;;;;;;;6.35;5.85;;;;;;;29.02;29.41;97570.34;5010988;28;21670;-61
2022/07/18 09:52:07;;;;;;;6.40;5.88;;;;;;;29.39;28.96;97566.06;5012876;28;20049;-58
2022/07/18 09:54:38;;;;;;;6.78;6.28;;;;;;;29.78;28.41;97555.59;5017250;28;20107;-62
2022/07/18 09:57:05;;;;;;;8.82;6.10;;;;;;;30.05;28.24;97556.19;5015719;28;20061;-60
2022/07/18 09:59:32;;;;;;;6.85;6.22;;;;;;;29.46;28.48;97462.94;5018289;28;20049;-58
2022/07/18 10:01:59;;;;;;;6.38;5.93;;;;;;;27.96;29.35;97367.19;5014073;28;20053;-64
2022/07/18 10:04:26;;;;;;;7.22;6.68;;;;;;;28.83;29.44;97506.03;5012563;28;20532;-63
2022/07/18 10:06:53;;;;;;;7.78;6.97;;;;;;;28.70;30.07;97496.88;5015186;28;20144;-66
2022/07/18 10:09:21;;;;;;;6.97;6.15;;;;;;;28.31;29.84;97469.41;5012016;28;20049;-65
2022/07/18 10:11:48;;;;;;;7.03;6.43;;;;;;;29.04;29.78;97505.00;5011356;28;20069;-67
2022/07/18 10:14:15;;;;;;;6.88;6.32;;;;;;;29.70;28.99;97546.59;5014734;28;20156;-63
2022/07/18 10:16:43;;;;;;;6.60;6.10;;;;;;;29.77;28.75;97511.94;5014233;28;20297;-64
2022/07/18 10:19:11;;;;;;;6.68;6.18;;;;;;;30.30;28.81;97538.56;5011645;28;20050;-60
2022/07/18 10:21:38;;;;;;;6.72;6.32;;;;;;;30.46;28.08;97495.16;5014209;28;20054;-59
2022/07/18 10:24:05;;;;;;;7.70;7.00;;;;;;;31.00;28.07;97533.88;5015807;28;20061;-60
2022/07/18 10:26:32;;;;;;;7.10;6.55;;;;;;;31.17;27.24;97522.72;5014638;28;20049;-63
2022/07/18 10:29:02;;;;;;;7.50;6.82;;;;;;;31.42;27.99;97533.53;5021351;28;20045;-64
2022/07/18 10:31:37;;;;;;;6.93;6.32;;;;;;;31.77;27.02;97523.66;5015213;28;20966;-59
2022/07/18 10:34:04;;;;;;;7.57;7.00;;;;;;;32.02;26.39;97525.84;5016342;28;20045;-63
2022/07/18 10:36:53;;;;;;;8.15;7.50;;;;;;;31.56;27.09;97524.13;5019787;28;20058;-65
2022/07/18 10:39:31;;;;;;;7.47;6.88;;;;;;;30.84;26.59;97492.25;5019996;28;20050;-62
2022/07/18 10:41:58;;;;;;;7.30;6.90;;;;;;;30.47;27.36;97525.38;5018334;28;20061;-60
2022/07/18 10:44:30;;;;;;;7.47;6.88;;;;;;;29.92;28.31;97529.94;5022950;28;20060;-66
2022/07/18 10:47:02;;;;;;;6.38;5.85;;;;;;;29.67;29.15;97529.63;5016835;28;20054;-64
2022/07/18 10:49:47;;;;;;;6.93;6.43;;;;;;;28.88;29.66;97533.91;5019778;28;20053;-63
2022/07/18 10:52:29;;;;;;;10.10;6.55;;;;;;;28.43;30.07;97523.38;5016515;28;20053;-64
2022/07/18 10:55:18;;;;;;;6.68;6.10;;;;;;;28.47;30.31;97517.50;5021063;28;20125;-62
2022/07/18 10:57:49;;;;;;;6.97;5.82;;;;;;;28.97;30.16;97511.06;5021280;28;20441;-66
2022/07/18 11:00:22;;;;;;;6.53;6.07;;;;;;;29.28;29.17;97458.13;5014108;28;20046;-62
2022/07/18 11:03:01;;;;;;;7.13;6.43;;;;;;;30.06;29.22;97512.03;5023880;28;20866;-61
2022/07/18 11:05:27;;;;;;;6.47;6.07;;;;;;;30.63;28.19;97506.94;5019222;28;20057;-64
2022/07/18 11:07:57;;;;;;;7.60;6.90;;;;;;;30.98;28.20;97502.88;5020264;28;20059;-58
2022/07/18 11:10:47;;;;;;;6.82;6.47;;;;;;;31.36;28.07;97504.03;5017624;28;20056;-62
2022/07/18 11:13:23;;;;;;;6.93;6.43;;;;;;;31.51;27.47;97510.50;5017806;28;20052;-59
2022/07/18 11:16:09;;;;;;;7.32;6.65;;;;;;;31.37;27.22;97505.59;5009764;28;20454;-66
2022/07/18 11:18:39;;;;;;;7.18;6.53;;;;;;;30.13;27.69;97505.94;5015211;28;20053;-60
2022/07/18 11:21:24;;;;;;;7.47;6.93;;;;;;;29.37;28.61;97460.16;5015059;28;20083;-64
2022/07/18 11:23:53;;;;;;;6.88;6.38;;;;;;;29.01;29.52;97505.97;5018470;28;20063;-63
2022/07/18 11:26:22;;;;;;;6.57;6.07;;;;;;;29.14;28.88;97498.00;5015963;28;20604;-65
2022/07/18 11:29:00;;;;;;;7.10;6.47;;;;;;;29.81;28.26;97518.28;5029754;28;20088;-68
2022/07/18 11:31:29;;;;;;;8.85;7.90;;;;;;;30.41;28.25;97498.75;5013637;28;20071;-60
2022/07/18 11:34:00;;;;;;;6.70;5.90;;;;;;;30.95;27.72;97501.00;5015971;28;20059;-68
2022/07/18 11:36:32;;;;;;;7.40;6.70;;;;;;;30.11;26.34;97314.16;5018330;28;20057;-64
2022/07/18 11:39:03;;;;;;;7.63;6.93;;;;;;;31.48;26.91;97494.31;5018783;28;20049;-66
2022/07/18 11:41:30;;;;;;;7.03;6.57;;;;;;;31.67;26.17;97489.91;5019195;28;20053;-62
2022/07/18 11:43:58;;;;;;;7.30;6.80;;;;;;;31.53;26.42;97444.91;5016596;28;20516;-66
2022/07/18 11:46:27;;;;;;;10.70;7.80;;;;;;;31.71;26.43;97465.47;5018871;28;20144;-63